Time;durP1;ratioP1;P1;durP2;ratioP2;P2;SDS_P1;SDS_P2;PMS_P1;PMS_P2;Temp;Humidity;BMP_temperature;BMP_pressure;BME280_temperature;BME280_humidity;BME280_pressure;Samples;Min_cycle;Max_cycle;Signal;HPM_P1;HPM_P2
2022/03/27 00:02:18;;;;;;;12.07;4.50;;;2.30;99.90;;;;;;5094666;28;20500;-85
2022/03/27 00:04:44;;;;;;;9.47;3.67;;;2.40;99.90;;;;;;5111812;28;20494;-82
2022/03/27 00:07:10;;;;;;;9.67;3.50;;;2.40;99.90;;;;;;5111426;28;20054;-84
2022/03/27 00:09:36;;;;;;;9.40;4.33;;;2.10;99.90;;;;;;5061397;28;20039;-83
2022/03/27 00:12:03;;;;;;;25.80;4.83;;;2.30;99.90;;;;;;5111420;28;20050;-84
2022/03/27 00:14:29;;;;;;;99.63;7.90;;;2.40;99.90;;;;;;5111896;28;20130;-78
2022/03/27 00:16:54;;;;;;;54.97;7.70;;;2.30;99.90;;;;;;5094831;28;20101;-84
2022/03/27 00:19:20;;;;;;;20.30;6.33;;;2.60;99.90;;;;;;5078032;28;20054;-83
2022/03/27 00:21:46;;;;;;;17.37;6.10;;;2.70;99.90;;;;;;5094431;28;20063;-78
2022/03/27 00:24:11;;;;;;;15.27;4.87;;;2.60;99.90;;;;;;5061300;28;20071;-78
2022/03/27 00:26:37;;;;;;;13.70;5.40;;;3.00;99.90;;;;;;5094702;28;20071;-78
2022/03/27 00:29:04;;;;;;;13.03;4.90;;;3.10;99.90;;;;;;5111436;28;20040;-83
2022/03/27 00:31:35;;;;;;;11.87;4.77;;;3.30;99.90;;;;;;5094913;28;20437;-78
2022/03/27 00:34:02;;;;;;;20.90;7.20;;;3.40;99.90;;;;;;5094454;28;20387;-78
2022/03/27 00:36:28;;;;;;;16.13;5.63;;;3.50;99.90;;;;;;5077803;28;20402;-78
2022/03/27 00:38:54;;;;;;;34.10;8.13;;;3.60;99.90;;;;;;5111524;28;20055;-84
2022/03/27 00:41:20;;;;;;;26.97;7.53;;;3.70;99.90;;;;;;5094353;28;20043;-81
2022/03/27 00:43:46;;;;;;;17.40;5.33;;;3.40;99.90;;;;;;5111476;28;20069;-78
2022/03/27 00:46:12;;;;;;;18.80;6.70;;;4.00;99.90;;;;;;5111199;28;20043;-78
2022/03/27 00:48:38;;;;;;;20.33;5.82;;;3.50;99.90;;;;;;5094753;28;20130;-84
2022/03/27 00:51:04;;;;;;;19.85;6.28;;;3.70;99.90;;;;;;5094301;28;20067;-84
2022/03/27 00:53:30;;;;;;;17.80;5.10;;;3.10;99.90;;;;;;5094580;28;20047;-84
2022/03/27 00:55:56;;;;;;;19.80;5.45;;;3.30;99.90;;;;;;5111233;28;20046;-84
2022/03/27 00:58:22;;;;;;;29.60;7.10;;;3.20;99.90;;;;;;5111381;28;20044;-84
2022/03/27 01:01:13;;;;;;;50.90;9.90;;;2.90;99.90;;;;;;5111460;28;20044;-78
2022/03/27 01:03:39;;;;;;;23.30;7.23;;;3.10;99.90;;;;;;5111452;28;20100;-78
2022/03/27 01:06:18;;;;;;;20.40;8.27;;;3.00;99.90;;;;;;5094338;28;20043;-84
2022/03/27 01:11:29;;;;;;;19.47;8.40;;;2.90;99.90;;;;;;5092987;28;20048;-78
2022/03/27 01:13:57;;;;;;;38.00;12.00;;;3.00;99.90;;;;;;5114742;28;20405;-82
2022/03/27 01:16:38;;;;;;;32.97;9.80;;;3.10;99.90;;;;;;5097337;28;20043;-84
2022/03/27 01:19:05;;;;;;;21.20;7.00;;;2.90;99.90;;;;;;5097694;28;20040;-84
2022/03/27 01:21:31;;;;;;;16.47;8.03;;;3.10;99.90;;;;;;5114795;28;20061;-84
2022/03/27 01:23:56;;;;;;;17.93;7.87;;;3.60;99.90;;;;;;5115110;28;20117;-78
2022/03/27 01:26:23;;;;;;;16.70;7.80;;;3.30;99.90;;;;;;5097714;28;20078;-84
2022/03/27 01:28:50;;;;;;;16.30;6.97;;;3.00;99.90;;;;;;5097579;28;20050;-78
2022/03/27 01:31:17;;;;;;;22.13;7.37;;;3.50;99.90;;;;;;5114561;28;20062;-77
2022/03/27 01:33:44;;;;;;;20.50;8.20;;;3.00;99.90;;;;;;5114636;28;20047;-84
2022/03/27 01:36:09;;;;;;;26.20;9.97;;;2.90;99.90;;;;;;5080535;28;20044;-78
2022/03/27 01:38:35;;;;;;;420.63;23.23;;;2.90;99.90;;;;;;5114621;28;20108;-84
2022/03/27 01:41:01;;;;;;;278.33;13.60;;;2.60;99.90;;;;;;5097576;28;20083;-84
2022/03/27 01:43:27;;;;;;;385.70;20.27;;;2.70;99.90;;;;;;5097311;28;20036;-78
2022/03/27 01:45:53;;;;;;;342.07;17.53;;;2.70;99.90;;;;;;5114454;28;20031;-83
2022/03/27 01:48:18;;;;;;;323.67;13.77;;;2.70;99.90;;;;;;5113913;28;20142;-84
2022/03/27 01:50:57;;;;;;;396.37;14.97;;;2.60;99.90;;;;;;5097044;28;20051;-77
2022/03/27 01:53:22;;;;;;;97.20;8.57;;;2.20;99.90;;;;;;5096621;28;20043;-78
2022/03/27 01:55:48;;;;;;;276.90;13.10;;;2.40;99.90;;;;;;5114192;28;20090;-78
2022/03/27 01:58:14;;;;;;;242.37;9.97;;;2.20;99.90;;;;;;5096920;28;20394;-77
2022/03/27 02:00:42;;;;;;;233.37;14.07;;;2.10;99.90;;;;;;5063350;28;20455;-78
2022/03/27 02:03:09;;;;;;;330.67;17.27;;;1.90;99.90;;;;;;5096759;28;20043;-84
2022/03/27 02:05:35;;;;;;;406.47;18.17;;;1.90;99.90;;;;;;5096888;28;20052;-83
2022/03/27 02:08:01;;;;;;;371.23;17.97;;;1.80;99.90;;;;;;5096724;28;20482;-84
2022/03/27 02:10:27;;;;;;;435.37;16.67;;;2.20;99.90;;;;;;5113934;28;20096;-78
2022/03/27 02:12:53;;;;;;;156.17;8.33;;;2.00;99.90;;;;;;5113518;28;20479;-84
2022/03/27 02:15:19;;;;;;;279.13;11.67;;;1.70;99.90;;;;;;5096602;28;20046;-83
2022/03/27 02:17:44;;;;;;;211.00;8.40;;;1.90;99.90;;;;;;5096471;28;20040;-78
2022/03/27 02:20:11;;;;;;;183.77;8.83;;;1.80;99.90;;;;;;5062906;28;20130;-78
2022/03/27 02:22:37;;;;;;;277.87;11.40;;;1.70;99.90;;;;;;5112257;28;20062;-83
2022/03/27 02:25:04;;;;;;;213.43;9.97;;;1.60;99.90;;;;;;5113498;28;20047;-83
2022/03/27 02:27:30;;;;;;;244.50;9.33;;;1.60;99.90;;;;;;5113206;28;20051;-78
2022/03/27 02:29:57;;;;;;;283.40;10.60;;;1.30;99.90;;;;;;5113367;28;20040;-77
2022/03/27 02:32:22;;;;;;;299.07;11.60;;;1.30;99.90;;;;;;5096022;28;20039;-84
2022/03/27 02:34:48;;;;;;;335.80;14.57;;;1.40;99.90;;;;;;5113206;28;20422;-77
2022/03/27 02:37:14;;;;;;;337.53;13.40;;;1.30;99.90;;;;;;5112723;28;20039;-84
2022/03/27 02:39:41;;;;;;;221.87;10.40;;;1.80;99.90;;;;;;5079296;28;20051;-78
2022/03/27 02:42:06;;;;;;;87.63;7.50;;;1.30;99.90;;;;;;5096151;28;20371;-77
2022/03/27 02:44:32;;;;;;;146.63;7.20;;;1.60;99.90;;;;;;5112982;28;20046;-78
2022/03/27 02:46:59;;;;;;;307.57;12.30;;;1.30;99.90;;;;;;5096004;28;20661;-77
2022/03/27 02:49:25;;;;;;;281.50;11.13;;;1.40;99.90;;;;;;5112765;28;20235;-78
2022/03/27 02:51:51;;;;;;;242.93;10.77;;;1.50;99.90;;;;;;5112614;28;20134;-84
2022/03/27 02:54:16;;;;;;;183.97;10.10;;;1.30;99.90;;;;;;5078941;28;20189;-78
2022/03/27 02:56:42;;;;;;;322.73;11.03;;;1.10;99.90;;;;;;5095696;28;20048;-77
2022/03/27 02:59:08;;;;;;;405.53;13.20;;;1.20;99.90;;;;;;5112988;28;20071;-83
2022/03/27 03:01:34;;;;;;;328.43;10.70;;;1.20;99.90;;;;;;5079037;28;20066;-83
2022/03/27 03:04:02;;;;;;;142.37;8.37;;;1.10;99.90;;;;;;5095599;28;20092;-78
2022/03/27 03:06:30;;;;;;;167.10;8.17;;;1.10;99.90;;;;;;5095818;28;20044;-84
2022/03/27 03:08:56;;;;;;;412.20;15.50;;;1.00;99.90;;;;;;5112402;28;20058;-78
2022/03/27 03:11:22;;;;;;;113.10;6.60;;;1.00;99.90;;;;;;5095795;28;20039;-83
2022/03/27 03:13:50;;;;;;;210.80;10.73;;;1.00;99.90;;;;;;5078749;28;20043;-84
2022/03/27 03:16:16;;;;;;;214.60;8.77;;;1.00;99.90;;;;;;5062471;28;20366;-77
2022/03/27 03:18:43;;;;;;;219.37;10.43;;;0.80;99.90;;;;;;5112607;28;20040;-83
2022/03/27 03:21:09;;;;;;;325.00;14.53;;;1.00;99.90;;;;;;5112283;28;20180;-78
2022/03/27 03:23:36;;;;;;;400.43;15.87;;;1.00;99.90;;;;;;5112150;28;20075;-78
2022/03/27 03:26:04;;;;;;;118.77;8.40;;;0.90;99.90;;;;;;5095301;28;20050;-78
2022/03/27 03:28:30;;;;;;;230.93;10.63;;;1.10;99.90;;;;;;5095413;28;20129;-84
2022/03/27 03:30:56;;;;;;;406.73;17.73;;;1.00;99.90;;;;;;5112605;28;20510;-77
2022/03/27 03:33:21;;;;;;;421.80;19.80;;;0.80;99.90;;;;;;5094740;28;20048;-77
2022/03/27 03:35:47;;;;;;;387.60;16.83;;;0.90;99.90;;;;;;5095176;28;20051;-83
2022/03/27 03:38:13;;;;;;;292.23;15.27;;;0.90;99.90;;;;;;5094850;28;20043;-83
2022/03/27 03:40:41;;;;;;;304.93;14.47;;;0.90;99.90;;;;;;5111988;28;20043;-78
2022/03/27 03:43:07;;;;;;;301.40;18.47;;;0.90;99.90;;;;;;5095085;28;20126;-78
2022/03/27 03:45:33;;;;;;;230.30;14.87;;;0.60;99.90;;;;;;5112182;28;20387;-78
2022/03/27 03:47:59;;;;;;;220.57;15.63;;;0.80;99.90;;;;;;5111980;28;20062;-83
2022/03/27 03:50:26;;;;;;;381.87;16.87;;;0.60;99.90;;;;;;5095302;28;20090;-83
2022/03/27 03:52:52;;;;;;;456.90;21.40;;;0.70;99.90;;;;;;5078084;28;20047;-83
2022/03/27 03:55:18;;;;;;;377.10;19.03;;;0.60;99.90;;;;;;5078185;28;20036;-77
2022/03/27 03:57:44;;;;;;;228.30;14.63;;;0.70;99.90;;;;;;5094476;28;20054;-78
2022/03/27 04:00:10;;;;;;;227.83;11.20;;;0.70;99.90;;;;;;5094859;28;20086;-77
2022/03/27 04:02:36;;;;;;;447.37;18.53;;;0.60;99.90;;;;;;5111655;28;20123;-83
2022/03/27 04:05:02;;;;;;;401.83;17.13;;;0.30;99.90;;;;;;5094771;28;20123;-77
2022/03/27 04:07:27;;;;;;;303.13;13.67;;;0.40;99.90;;;;;;5077678;28;20071;-78
2022/03/27 04:09:53;;;;;;;233.90;12.60;;;0.30;99.90;;;;;;5094758;28;20088;-83
2022/03/27 04:12:19;;;;;;;187.47;9.37;;;0.30;99.90;;;;;;5077989;28;20039;-83
2022/03/27 04:14:45;;;;;;;163.03;8.37;;;0.20;99.90;;;;;;5094781;28;20131;-77
2022/03/27 04:17:11;;;;;;;86.37;6.57;;;0.20;99.90;;;;;;5094556;28;20526;-84
2022/03/27 04:19:37;;;;;;;64.40;7.90;;;0.20;99.90;;;;;;5094961;28;20104;-78
2022/03/27 04:22:04;;;;;;;115.87;12.17;;;0.30;99.90;;;;;;5111079;28;20060;-83
2022/03/27 04:24:29;;;;;;;181.83;16.30;;;0.40;99.90;;;;;;5094636;28;20048;-83
2022/03/27 04:26:55;;;;;;;91.17;11.70;;;0.50;99.90;;;;;;5111533;28;20059;-77
2022/03/27 04:29:21;;;;;;;59.37;7.07;;;0.40;99.90;;;;;;5061113;28;20044;-83
2022/03/27 04:31:47;;;;;;;149.20;14.93;;;0.40;99.90;;;;;;5060821;28;20038;-77
2022/03/27 04:34:13;;;;;;;140.33;13.90;;;0.50;99.90;;;;;;5111441;28;20040;-77
2022/03/27 04:36:40;;;;;;;144.63;8.63;;;1.20;99.90;;;;;;5094527;28;20046;-77
2022/03/27 04:39:07;;;;;;;224.87;10.93;;;0.20;99.90;;;;;;5094504;28;20036;-77
2022/03/27 04:41:33;;;;;;;310.40;16.30;;;0.10;99.90;;;;;;5111271;28;20035;-83
2022/03/27 04:43:59;;;;;;;219.53;10.03;;;0.10;99.90;;;;;;5111541;28;20048;-83
2022/03/27 04:46:25;;;;;;;304.80;16.80;;;0.10;99.90;;;;;;5097584;28;20052;-77
2022/03/27 04:48:50;;;;;;;160.37;11.23;;;-0.10;99.90;;;;;;5098544;28;20040;-78
2022/03/27 04:51:16;;;;;;;99.87;10.00;;;-0.10;99.90;;;;;;5115148;28;20126;-78
2022/03/27 04:53:42;;;;;;;44.73;8.03;;;-0.10;99.90;;;;;;5098591;28;20109;-83
2022/03/27 04:56:08;;;;;;;34.17;6.70;;;-0.20;99.90;;;;;;5115254;28;20051;-77
2022/03/27 04:58:35;;;;;;;48.73;7.70;;;-0.10;99.90;;;;;;5114901;28;20051;-84
2022/03/27 05:01:00;;;;;;;43.10;10.57;;;0.10;99.90;;;;;;5080958;28;20122;-77
2022/03/27 05:03:26;;;;;;;86.77;11.70;;;0.00;99.90;;;;;;5081074;28;20070;-83
2022/03/27 05:05:52;;;;;;;23.20;8.30;;;0.20;99.90;;;;;;5114946;28;20043;-77
2022/03/27 05:08:17;;;;;;;21.27;8.00;;;0.20;99.90;;;;;;5081182;28;20394;-77
2022/03/27 05:10:43;;;;;;;29.97;9.80;;;0.20;99.90;;;;;;5097916;28;20482;-77
2022/03/27 05:13:09;;;;;;;22.53;8.43;;;0.10;99.90;;;;;;5114614;28;20494;-84
2022/03/27 05:15:35;;;;;;;16.60;7.30;;;0.20;99.90;;;;;;5080840;28;20044;-83
2022/03/27 05:18:01;;;;;;;41.10;8.90;;;0.10;99.90;;;;;;5114720;28;20043;-83
2022/03/27 05:20:29;;;;;;;38.23;9.87;;;0.30;99.90;;;;;;5097601;28;20549;-77
2022/03/27 05:23:02;;;;;;;45.77;9.53;;;0.70;99.90;;;;;;5114481;28;20056;-83
2022/03/27 05:25:28;;;;;;;50.50;9.68;;;0.90;99.90;;;;;;5115032;28;20367;-83
2022/03/27 05:27:56;;;;;;;47.87;9.70;;;1.20;99.90;;;;;;5097544;28;20092;-77
2022/03/27 05:30:23;;;;;;;40.10;10.57;;;1.30;99.90;;;;;;5097330;28;20036;-83
2022/03/27 05:32:51;;;;;;;230.33;17.97;;;1.60;99.90;;;;;;5080724;28;20134;-83
2022/03/27 05:35:17;;;;;;;285.47;18.93;;;1.30;99.90;;;;;;5114482;28;20433;-77
2022/03/27 05:37:45;;;;;;;332.97;21.33;;;0.70;99.90;;;;;;5114318;28;20058;-83
2022/03/27 05:40:14;;;;;;;162.13;12.43;;;0.30;99.90;;;;;;5114053;28;20047;-77
2022/03/27 05:42:40;;;;;;;86.77;11.90;;;0.20;99.90;;;;;;5097695;28;20070;-78
2022/03/27 05:45:07;;;;;;;26.53;9.30;;;-0.10;99.90;;;;;;5114360;28;20047;-77
2022/03/27 05:47:33;;;;;;;36.83;9.33;;;0.00;99.90;;;;;;5114020;28;20043;-83
2022/03/27 05:49:59;;;;;;;45.40;9.97;;;0.00;99.90;;;;;;5080123;28;20046;-78
2022/03/27 05:52:25;;;;;;;52.93;9.77;;;0.10;99.90;;;;;;5096736;28;20050;-77
2022/03/27 05:54:51;;;;;;;69.60;10.73;;;0.60;99.90;;;;;;5096979;28;20047;-77
2022/03/27 05:57:18;;;;;;;64.90;10.43;;;1.40;99.90;;;;;;5113696;28;20394;-83
2022/03/27 05:59:47;;;;;;;65.53;11.03;;;1.90;99.90;;;;;;5097154;28;20580;-77
2022/03/27 06:02:14;;;;;;;88.37;13.37;;;2.30;99.90;;;;;;5113680;28;20058;-77
2022/03/27 06:04:40;;;;;;;75.50;13.57;;;2.80;99.90;;;;;;5113777;28;20126;-78
2022/03/27 06:07:06;;;;;;;84.13;13.43;;;3.10;99.90;;;;;;5079829;28;20447;-83
2022/03/27 06:09:35;;;;;;;108.20;13.80;;;3.30;99.90;;;;;;5080268;28;20402;-83
2022/03/27 06:12:01;;;;;;;96.73;12.03;;;3.30;99.90;;;;;;5113255;28;20084;-83
2022/03/27 06:14:27;;;;;;;90.17;14.63;;;3.80;99.90;;;;;;5096447;28;20494;-77
2022/03/27 06:16:53;;;;;;;86.77;13.20;;;3.60;99.90;;;;;;5096697;28;20402;-83
2022/03/27 06:19:19;;;;;;;124.10;14.00;;;3.90;99.90;;;;;;5096442;28;20040;-78
2022/03/27 06:21:45;;;;;;;67.77;11.43;;;4.10;99.90;;;;;;5113205;28;20064;-83
2022/03/27 06:24:12;;;;;;;30.87;7.17;;;4.30;99.90;;;;;;5062750;28;20506;-77
2022/03/27 06:26:38;;;;;;;37.93;9.33;;;3.40;99.90;;;;;;5113412;28;20401;-84
2022/03/27 06:29:04;;;;;;;35.73;6.70;;;3.10;99.90;;;;;;5096456;28;20448;-83
2022/03/27 06:31:30;;;;;;;30.90;6.87;;;2.50;99.90;;;;;;5113187;28;20039;-77
2022/03/27 06:33:56;;;;;;;30.73;6.40;;;2.40;99.90;;;;;;5113259;28;20454;-83
2022/03/27 06:36:22;;;;;;;25.40;6.20;;;2.60;99.90;;;;;;5096066;28;20459;-77
2022/03/27 06:38:48;;;;;;;20.87;6.03;;;2.50;99.90;;;;;;5113299;28;20465;-77
2022/03/27 06:41:13;;;;;;;22.03;6.10;;;2.20;99.90;;;;;;5095661;28;20046;-77
2022/03/27 06:43:39;;;;;;;21.57;6.00;;;2.10;99.90;;;;;;5096401;28;20043;-77
2022/03/27 06:46:06;;;;;;;28.40;7.40;;;2.40;99.90;;;;;;5079436;28;20056;-77
2022/03/27 06:48:32;;;;;;;23.57;7.40;;;2.30;99.90;;;;;;5096166;28;20047;-83
2022/03/27 06:50:58;;;;;;;40.00;8.93;;;2.50;99.90;;;;;;5095838;28;20051;-77
2022/03/27 06:53:24;;;;;;;26.50;7.33;;;2.60;99.90;;;;;;5112692;28;20051;-78
2022/03/27 06:55:51;;;;;;;37.67;9.60;;;2.70;99.90;;;;;;5096217;28;20059;-82
2022/03/27 06:58:18;;;;;;;28.63;8.07;;;2.80;99.90;;;;;;5096032;28;20543;-77
2022/03/27 07:03:28;;;;;;;45.67;9.83;;;3.00;99.90;;;;;;5112579;28;20048;-77
2022/03/27 07:05:54;;;;;;;41.60;9.23;;;3.00;99.90;;;;;;5112729;28;20050;-82
2022/03/27 07:08:20;;;;;;;45.77;9.90;;;3.10;99.90;;;;;;5094993;28;20043;-83
2022/03/27 07:10:48;;;;;;;51.90;9.60;;;3.40;99.90;;;;;;5078625;28;20043;-83
2022/03/27 07:13:15;;;;;;;49.00;10.37;;;3.50;99.90;;;;;;5095360;28;20047;-83
2022/03/27 07:15:43;;;;;;;58.33;10.83;;;4.30;99.90;;;;;;5112245;28;20058;-77
2022/03/27 07:18:09;;;;;;;59.13;10.60;;;4.20;99.90;;;;;;5112572;28;20059;-83
2022/03/27 07:20:37;;;;;;;49.70;9.68;;;4.30;99.90;;;;;;5111904;28;20051;-77
2022/03/27 07:23:09;;;;;;;61.63;10.73;;;4.20;99.90;;;;;;5112515;28;20046;-77
2022/03/27 07:25:38;;;;;;;59.38;12.02;;;4.60;99.90;;;;;;5112252;28;20045;-78
2022/03/27 07:28:05;;;;;;;70.13;12.30;;;4.70;99.90;;;;;;5078964;28;20050;-83
2022/03/27 07:30:31;;;;;;;75.10;11.05;;;5.10;99.90;;;;;;5112043;28;20043;-78
2022/03/27 07:32:57;;;;;;;69.95;10.50;;;5.30;99.90;;;;;;5111789;28;20043;-83
2022/03/27 07:35:25;;;;;;;60.42;10.90;;;5.30;99.90;;;;;;5095053;28;20039;-83
2022/03/27 07:37:52;;;;;;;70.65;10.52;;;5.70;99.90;;;;;;5095668;28;20071;-77
2022/03/27 07:40:20;;;;;;;67.63;9.75;;;5.50;99.90;;;;;;5112127;28;20044;-83
2022/03/27 07:42:49;;;;;;;56.38;10.88;;;5.90;99.90;;;;;;5095119;28;20055;-77
2022/03/27 07:45:18;;;;;;;64.68;9.30;;;6.10;99.90;;;;;;5095128;28;20047;-77
2022/03/27 07:47:45;;;;;;;56.58;10.77;;;6.30;99.90;;;;;;5095060;28;20040;-77
2022/03/27 07:50:12;;;;;;;58.10;10.50;;;6.50;99.90;;;;;;5095053;28;20130;-78
2022/03/27 07:52:39;;;;;;;68.97;11.93;;;6.80;99.90;;;;;;5111677;28;20051;-83
2022/03/27 07:55:06;;;;;;;57.75;10.65;;;6.70;99.90;;;;;;5094787;28;20044;-78
2022/03/27 07:57:33;;;;;;;58.83;8.73;;;6.90;99.90;;;;;;5094929;28;20043;-83
2022/03/27 07:59:59;;;;;;;65.30;9.00;;;7.10;99.90;;;;;;5077973;28;20052;-77
2022/03/27 08:02:25;;;;;;;50.95;9.00;;;6.90;99.90;;;;;;5111508;28;20054;-83
2022/03/27 08:04:51;;;;;;;49.08;7.75;;;7.20;99.90;;;;;;5111596;28;20048;-78
2022/03/27 08:07:17;;;;;;;51.88;7.82;;;7.50;99.90;;;;;;5112490;28;20049;-83
2022/03/27 08:09:43;;;;;;;46.95;7.85;;;7.30;99.90;;;;;;5111524;28;20093;-83
2022/03/27 08:12:09;;;;;;;49.08;10.73;;;8.10;99.90;;;;;;5111445;28;20048;-78
2022/03/27 08:14:36;;;;;;;48.33;8.70;;;7.70;99.90;;;;;;5111598;28;20050;-83
2022/03/27 08:17:03;;;;;;;40.03;7.93;;;7.70;99.90;;;;;;5077591;28;20122;-78
2022/03/27 08:19:29;;;;;;;37.67;8.50;;;7.80;99.90;;;;;;5094689;28;20440;-78
2022/03/27 08:21:55;;;;;;;45.30;10.27;;;7.90;99.90;;;;;;5115228;28;20055;-78
2022/03/27 08:24:21;;;;;;;48.28;7.95;;;7.90;99.90;;;;;;5115548;28;20088;-78
2022/03/27 08:26:56;;;;;;;38.03;7.72;;;8.20;1.00;;;;;;5098373;28;20048;-78
2022/03/27 08:29:31;;;;;;;42.95;8.27;;;7.90;1.00;;;;;;5082851;28;20106;-84
2022/03/27 08:32:00;;;;;;;35.67;8.50;;;8.00;99.90;;;;;;5098450;28;20130;-84
2022/03/27 08:34:28;;;;;;;35.72;9.27;;;8.10;99.90;;;;;;5115510;28;20058;-78
2022/03/27 08:36:55;;;;;;;39.58;9.27;;;8.10;99.90;;;;;;5098985;28;20498;-84
2022/03/27 08:39:21;;;;;;;45.53;8.57;;;8.90;99.90;;;;;;5082024;28;20047;-84
2022/03/27 08:41:49;;;;;;;39.67;8.48;;;8.40;99.90;;;;;;5098161;28;20134;-78
2022/03/27 08:44:18;;;;;;;41.40;7.90;;;8.40;99.90;;;;;;5098308;28;20035;-84
2022/03/27 08:46:45;;;;;;;43.33;6.55;;;9.00;99.90;;;;;;5098159;28;20051;-85
2022/03/27 08:49:20;;;;;;;38.38;7.65;;;8.40;99.90;;;;;;5115162;28;20121;-78
2022/03/27 08:51:51;;;;;;;45.67;8.93;;;8.50;1.00;;;;;;5098288;28;20426;-80
2022/03/27 08:54:22;;;;;;;55.17;9.07;;;8.50;1.00;;;;;;5097945;28;20446;-78
2022/03/27 08:57:05;;;;;;;43.47;9.18;;;8.60;1.00;;;;;;5098207;28;20125;-78
2022/03/27 08:59:33;;;;;;;36.08;7.15;;;8.70;1.00;;;;;;5117838;27;20047;-84
2022/03/27 09:02:00;;;;;;;52.97;8.02;;;8.90;1.00;;;;;;5091470;27;20046;-79
2022/03/27 09:04:25;;;;;;;39.60;7.63;;;9.20;1.00;;;;;;5104109;28;20047;-78
2022/03/27 09:06:51;;;;;;;41.25;8.80;;;8.90;1.00;;;;;;5098677;27;20405;-84
2022/03/27 09:09:17;;;;;;;40.97;9.60;;;9.00;1.00;;;;;;5108527;27;20066;-84
2022/03/27 09:11:45;;;;;;;33.45;7.10;;;9.00;99.90;;;;;;5125975;27;20049;-78
2022/03/27 09:14:14;;;;;;;39.00;8.35;;;9.60;99.90;;;;;;5085871;27;20047;-84
2022/03/27 09:16:59;;;;;;;38.65;7.40;;;9.20;99.90;;;;;;5139142;27;20050;-79
2022/03/27 09:20:02;;;;;;;31.23;7.75;;;9.50;99.90;;;;;;5121660;27;20047;-78
2022/03/27 09:22:32;;;;;;;28.15;6.93;;;10.80;99.90;;;;;;5036145;28;20068;-84
2022/03/27 09:25:04;;;;;;;36.08;7.82;;;11.50;99.90;;;;;;5103806;27;20047;-79
2022/03/27 09:27:36;;;;;;;33.28;7.38;;;11.80;1.00;;;;;;5121883;27;20363;-78
2022/03/27 09:30:08;;;;;;;30.58;6.85;;;12.00;1.00;;;;;;5124170;27;20049;-85
2022/03/27 09:32:45;;;;;;;41.33;8.10;;;12.20;99.90;;;;;;5134488;27;20126;-84
2022/03/27 09:35:14;;;;;;;35.25;8.20;;;12.50;1.00;;;;;;5121477;27;20057;-79
2022/03/27 09:37:48;;;;;;;25.73;5.72;;;12.60;99.90;;;;;;5123426;27;20390;-79
2022/03/27 09:40:16;;;;;;;38.38;7.90;;;13.20;99.90;;;;;;5120234;27;20050;-79
2022/03/27 09:42:43;;;;;;;35.08;7.68;;;13.20;99.90;;;;;;5104364;27;20046;-79
2022/03/27 09:45:21;;;;;;;29.65;6.60;;;13.50;99.90;;;;;;5103273;27;20516;-79
2022/03/27 09:47:49;;;;;;;30.70;7.30;;;13.50;99.90;;;;;;5103213;27;20084;-79
2022/03/27 09:50:38;;;;;;;27.77;6.55;;;13.80;99.90;;;;;;5104815;27;20047;-85
2022/03/27 09:53:26;;;;;;;37.95;8.65;;;14.10;99.90;;;;;;5122183;27;20044;-79
2022/03/27 09:55:59;;;;;;;35.92;7.45;;;14.10;99.90;;;;;;5124377;27;20040;-84
2022/03/27 09:58:35;;;;;;;30.55;7.15;;;13.90;1.00;;;;;;5127319;27;20127;-79
2022/03/27 10:01:15;;;;;;;32.38;6.95;;;14.40;99.90;;;;;;5124617;27;20394;-85
2022/03/27 10:04:00;;;;;;;26.58;5.95;;;14.40;30.00;;;;;;5125050;27;20035;-85
2022/03/27 10:06:37;;;;;;;25.15;6.28;;;14.00;1.00;;;;;;5104334;27;20046;-79
2022/03/27 10:09:06;;;;;;;29.95;6.95;;;14.00;1.00;;;;;;5104492;27;20079;-85
2022/03/27 10:11:34;;;;;;;29.02;6.97;;;14.40;36.00;;;;;;5122766;27;20043;-79
2022/03/27 10:14:00;;;;;;;29.60;6.45;;;14.80;2.20;;;;;;5104820;27;20036;-79
2022/03/27 10:16:29;;;;;;;33.50;6.75;;;14.80;1.00;;;;;;5121023;27;20036;-85
2022/03/27 10:19:04;;;;;;;32.33;6.72;;;14.30;1.00;;;;;;5120529;27;20103;-79
2022/03/27 10:21:32;;;;;;;29.30;7.05;;;14.10;1.00;;;;;;5123481;27;20075;-86
2022/03/27 10:24:08;;;;;;;33.75;6.43;;;14.50;1.00;;;;;;5124580;27;20101;-79
2022/03/27 10:26:34;;;;;;;36.03;7.15;;;14.40;1.00;;;;;;5122800;27;20043;-85
2022/03/27 10:29:01;;;;;;;31.13;6.63;;;14.50;1.00;;;;;;5103235;27;20047;-79
2022/03/27 10:31:27;;;;;;;28.13;6.68;;;14.60;1.00;;;;;;5103123;28;20100;-79
2022/03/27 10:33:55;;;;;;;26.08;6.15;;;14.70;1.00;;;;;;5127353;27;20047;-86
2022/03/27 10:36:23;;;;;;;35.92;6.80;;;15.00;1.00;;;;;;5118458;27;20051;-79
2022/03/27 10:39:16;;;;;;;33.53;6.80;;;14.90;1.00;;;;;;5106724;27;20038;-79
2022/03/27 10:42:08;;;;;;;25.25;5.63;;;15.50;1.00;;;;;;5114867;27;20283;-79
2022/03/27 10:44:56;;;;;;;19.02;4.10;;;15.30;1.00;;;;;;5129859;27;20051;-79
2022/03/27 10:47:24;;;;;;;23.92;5.10;;;15.50;1.00;;;;;;5120418;27;20126;-85
2022/03/27 10:50:01;;;;;;;20.00;5.40;;;15.70;1.00;;;;;;5116207;27;20046;-79
2022/03/27 10:52:30;;;;;;;24.25;5.43;;;15.70;99.90;;;;;;5128536;27;20058;-86
2022/03/27 10:55:08;;;;;;;21.48;4.88;;;15.80;99.90;;;;;;5112680;28;20048;-79
2022/03/27 10:57:36;;;;;;;25.63;5.47;;;16.00;99.90;;;;;;5109451;27;20035;-86
2022/03/27 11:00:08;;;;;;;25.42;5.20;;;16.00;99.90;;;;;;5125928;27;20490;-80
2022/03/27 11:02:49;;;;;;;23.38;5.60;;;16.00;99.90;;;;;;5119206;27;20039;-85
2022/03/27 11:05:35;;;;;;;22.02;5.47;;;16.10;99.90;;;;;;5113495;27;20040;-79
2022/03/27 11:08:30;;;;;;;22.63;5.18;;;16.20;99.90;;;;;;5107623;27;20051;-79
2022/03/27 11:10:59;;;;;;;20.08;5.45;;;16.10;99.90;;;;;;5130592;27;20044;-79
2022/03/27 11:13:28;;;;;;;21.02;4.72;;;16.00;99.90;;;;;;5099071;28;20047;-85
2022/03/27 11:16:08;;;;;;;18.38;4.00;;;16.20;99.90;;;;;;5113328;27;20126;-80
2022/03/27 11:18:36;;;;;;;21.60;5.18;;;16.50;99.90;;;;;;5112237;28;20039;-86
2022/03/27 11:21:02;;;;;;;23.33;4.55;;;16.50;99.90;;;;;;5078481;28;20050;-86
2022/03/27 11:23:30;;;;;;;18.27;4.40;;;16.00;99.90;;;;;;5126254;27;20051;-86
2022/03/27 11:25:58;;;;;;;25.35;5.45;;;16.30;99.90;;;;;;5103864;28;20050;-80
2022/03/27 11:28:26;;;;;;;20.95;4.57;;;16.30;99.90;;;;;;5105479;27;20063;-79
2022/03/27 11:30:51;;;;;;;18.65;3.85;;;16.20;99.90;;;;;;5115395;27;20043;-80
2022/03/27 11:33:29;;;;;;;14.60;3.72;;;16.20;99.90;;;;;;5106653;27;20450;-86
2022/03/27 11:36:01;;;;;;;19.67;4.13;;;16.30;99.90;;;;;;5132650;27;20565;-79
2022/03/27 11:38:47;;;;;;;20.02;4.55;;;16.30;99.90;;;;;;5125786;27;20043;-85
2022/03/27 11:41:24;;;;;;;17.42;4.53;;;16.30;99.90;;;;;;5115242;27;20054;-86
2022/03/27 11:43:50;;;;;;;16.67;3.92;;;16.70;99.90;;;;;;5104760;28;20039;-86
2022/03/27 11:46:25;;;;;;;19.17;4.85;;;16.40;99.90;;;;;;5115156;27;20035;-86
2022/03/27 11:49:01;;;;;;;18.48;3.53;;;16.70;99.90;;;;;;5124152;27;20106;-86
2022/03/27 11:51:27;;;;;;;20.92;4.57;;;17.10;99.90;;;;;;5094046;28;20101;-80
2022/03/27 11:53:55;;;;;;;23.85;4.55;;;17.00;99.90;;;;;;5123648;27;20497;-80
2022/03/27 11:56:24;;;;;;;21.90;4.65;;;17.30;99.90;;;;;;5114913;27;20047;-80
2022/03/27 11:59:04;;;;;;;20.17;4.75;;;17.00;99.90;;;;;;5129076;27;20570;-80
2022/03/27 12:01:31;;;;;;;22.40;4.88;;;17.10;99.90;;;;;;5116260;27;20047;-80
2022/03/27 12:03:58;;;;;;;21.13;4.70;;;16.80;99.90;;;;;;5104285;27;20095;-80
2022/03/27 12:06:28;;;;;;;19.48;5.35;;;16.80;99.90;;;;;;5127182;27;20054;-86
2022/03/27 12:08:55;;;;;;;13.07;3.40;;;16.80;99.90;;;;;;5106490;28;20122;-86
2022/03/27 12:11:26;;;;;;;17.48;3.95;;;16.50;99.90;;;;;;5124057;27;20031;-79
2022/03/27 12:13:52;;;;;;;18.65;5.07;;;16.60;99.90;;;;;;5135728;27;20050;-86
2022/03/27 12:16:25;;;;;;;19.50;4.13;;;16.90;99.90;;;;;;5105856;28;20044;-86
2022/03/27 12:18:51;;;;;;;20.45;4.18;;;16.50;99.90;;;;;;5131587;28;20529;-80
2022/03/27 12:21:20;;;;;;;17.92;5.00;;;16.30;99.90;;;;;;5106531;28;20118;-86
2022/03/27 12:24:02;;;;;;;18.55;4.90;;;16.30;99.90;;;;;;5122850;28;20398;-80
2022/03/27 12:32:21;;;;;;;19.02;4.07;;;16.20;99.90;;;;;;5127203;28;20456;-80
2022/03/27 12:34:53;;;;;;;16.98;4.07;;;16.30;99.90;;;;;;5117309;28;20044;-80
2022/03/27 12:37:24;;;;;;;17.77;4.80;;;16.30;99.90;;;;;;5116765;28;20039;-80
2022/03/27 12:39:49;;;;;;;16.88;4.32;;;16.10;99.90;;;;;;5109683;28;20043;-86
2022/03/27 12:42:36;;;;;;;18.50;3.72;;;16.00;99.90;;;;;;5111919;28;20047;-86
2022/03/27 12:45:07;;;;;;;24.45;4.65;;;15.80;99.90;;;;;;5126293;28;20047;-80
2022/03/27 12:47:41;;;;;;;16.27;4.00;;;15.70;99.90;;;;;;5131715;28;20076;-79
2022/03/27 12:50:10;;;;;;;18.38;4.25;;;15.80;99.90;;;;;;5112776;28;20081;-86
2022/03/27 12:52:44;;;;;;;19.35;4.60;;;16.00;99.90;;;;;;5097329;28;20151;-86
2022/03/27 12:55:10;;;;;;;17.65;4.07;;;16.30;99.90;;;;;;5136885;27;20028;-80
2022/03/27 12:57:57;;;;;;;17.95;3.58;;;16.00;99.90;;;;;;5094894;28;20508;-86